createdAt,value
2022-12-25T00:02:35.780Z,80.57
2022-12-25T00:07:38.297Z,92.00
2022-12-25T00:12:40.768Z,108.80
2022-12-25T00:17:43.348Z,88.40
2022-12-25T00:22:45.795Z,88.97
2022-12-25T00:27:48.249Z,102.88
2022-12-25T00:32:50.735Z,107.40
2022-12-25T00:37:53.132Z,85.25
2022-12-25T00:42:55.557Z,82.47
2022-12-25T00:47:57.983Z,60.97
2022-12-25T00:53:00.412Z,77.35
2022-12-25T00:58:02.831Z,85.90
2022-12-25T01:03:05.265Z,80.22
2022-12-25T01:08:07.796Z,100.10
2022-12-25T01:13:10.246Z,100.17
2022-12-25T01:18:13.054Z,88.72
2022-12-25T01:23:16.041Z,111.37
2022-12-25T01:28:18.536Z,131.63
2022-12-25T01:33:20.949Z,142.60
2022-12-25T01:38:23.525Z,85.07
2022-12-25T01:43:30.901Z,62.85
2022-12-25T01:48:38.299Z,113.97
2022-12-25T01:53:40.786Z,109.05
2022-12-25T01:58:43.406Z,93.82
2022-12-25T02:03:45.868Z,94.83
2022-12-25T02:08:48.470Z,84.22
2022-12-25T02:13:50.933Z,117.57
2022-12-25T02:18:57.132Z,101.15
2022-12-25T02:24:16.668Z,78.47
2022-12-25T02:29:33.216Z,89.90
2022-12-25T02:34:59.676Z,80.00
2022-12-25T02:40:12.095Z,80.53
2022-12-25T02:45:37.455Z,93.00
2022-12-25T02:50:58.547Z,74.68
2022-12-25T02:56:19.719Z,62.70
2022-12-25T03:01:42.588Z,66.57
2022-12-25T03:07:02.373Z,80.27
2022-12-25T03:12:17.645Z,76.28
2022-12-25T03:17:20.074Z,59.08
2022-12-25T03:22:50.029Z,81.87
2022-12-25T03:27:56.066Z,78.72
2022-12-25T03:33:43.982Z,78.67
2022-12-25T03:39:13.351Z,77.65
2022-12-25T03:44:34.441Z,62.97
2022-12-25T03:50:04.019Z,39.83
2022-12-25T03:55:28.426Z,56.83
2022-12-25T04:00:49.951Z,55.17
2022-12-25T04:06:11.099Z,90.85
2022-12-25T04:11:32.284Z,65.93
2022-12-25T04:16:53.358Z,71.60
2022-12-25T04:22:14.390Z,59.67
2022-12-25T04:27:35.507Z,52.30
2022-12-25T04:32:56.537Z,37.65
2022-12-25T04:37:58.924Z,52.53
2022-12-25T04:43:01.291Z,81.60
2022-12-25T04:48:03.801Z,62.13
2022-12-25T04:53:06.229Z,63.23
2022-12-25T04:58:08.835Z,44.05
2022-12-25T05:03:11.321Z,48.42
2022-12-25T05:08:14.211Z,36.43
2022-12-25T05:13:17.048Z,41.70
2022-12-25T05:18:19.513Z,18.10
2022-12-25T05:23:22.649Z,13.88
2022-12-25T05:28:25.179Z,33.50
2022-12-25T05:33:27.699Z,29.77
2022-12-25T05:38:30.200Z,25.08
2022-12-25T05:43:32.833Z,40.13
2022-12-25T05:48:36.975Z,58.72
2022-12-25T05:53:41.911Z,72.05
2022-12-25T05:58:44.430Z,62.83
2022-12-25T06:03:47.400Z,52.95
2022-12-25T06:08:49.984Z,71.30
2022-12-25T06:13:53.449Z,95.03
2022-12-25T06:18:55.874Z,91.05
2022-12-25T06:23:59.921Z,63.63
2022-12-25T06:29:02.421Z,68.13
2022-12-25T06:34:05.247Z,85.27
2022-12-25T06:39:07.679Z,82.93
2022-12-25T06:44:10.118Z,117.70
2022-12-25T06:49:12.546Z,123.40
2022-12-25T06:54:15.004Z,76.45
2022-12-25T06:59:17.839Z,400.93
2022-12-25T07:04:33.046Z,224.38
2022-12-25T07:09:36.039Z,125.53
2022-12-25T07:14:38.540Z,83.27
2022-12-25T07:19:44.896Z,65.57
2022-12-25T07:24:47.640Z,62.80
2022-12-25T07:29:50.123Z,62.67
2022-12-25T07:34:52.588Z,50.95
2022-12-25T07:39:54.994Z,40.57
2022-12-25T07:44:57.422Z,47.38
2022-12-25T07:49:59.935Z,52.93
2022-12-25T07:55:03.206Z,43.70
2022-12-25T08:00:07.018Z,75.47
2022-12-25T08:05:09.698Z,58.67
2022-12-25T08:10:12.336Z,35.10
2022-12-25T08:15:14.744Z,53.97
2022-12-25T08:20:17.281Z,63.00
2022-12-25T08:25:19.775Z,89.35
2022-12-25T08:30:22.331Z,78.13
2022-12-25T08:35:26.313Z,68.57
2022-12-25T08:40:28.943Z,61.83
2022-12-25T08:45:35.172Z,51.88
2022-12-25T08:50:38.066Z,67.07
2022-12-25T08:55:40.762Z,65.87
2022-12-25T09:00:43.452Z,48.85
2022-12-25T09:05:45.851Z,43.95
2022-12-25T09:10:48.922Z,46.53
2022-12-25T09:15:51.417Z,68.97
2022-12-25T09:21:08.137Z,50.13
2022-12-25T09:26:14.321Z,53.03
2022-12-25T09:31:16.828Z,48.55
2022-12-25T09:36:21.495Z,44.13
2022-12-25T09:41:35.269Z,42.90
2022-12-25T09:46:51.867Z,66.07
2022-12-25T09:52:00.256Z,45.50
2022-12-25T09:57:03.261Z,44.45
2022-12-25T10:02:24.376Z,40.60
2022-12-25T10:08:05.100Z,48.38
2022-12-25T10:13:19.332Z,48.00
2022-12-25T10:19:10.651Z,52.60
2022-12-25T10:24:30.812Z,38.35
2022-12-25T10:29:35.047Z,42.42
2022-12-25T10:34:42.642Z,54.08
2022-12-25T10:39:46.870Z,30.23
2022-12-25T10:44:59.326Z,58.50
2022-12-25T10:50:11.850Z,40.70
2022-12-25T10:55:21.441Z,68.32
2022-12-25T11:00:30.140Z,41.08
2022-12-25T11:05:34.671Z,61.70
2022-12-25T11:10:42.695Z,38.83
2022-12-25T11:16:02.761Z,47.38
2022-12-25T11:21:17.822Z,50.35
2022-12-25T11:26:20.207Z,54.15
2022-12-25T11:31:30.228Z,45.63
2022-12-25T11:36:48.640Z,44.15
2022-12-25T11:42:13.660Z,55.42
2022-12-25T11:47:37.259Z,52.92
2022-12-25T11:52:41.199Z,47.85
2022-12-25T11:57:46.089Z,56.53
2022-12-25T12:02:58.857Z,47.03
2022-12-25T12:08:04.074Z,53.00
2022-12-25T12:13:12.132Z,60.15
2022-12-25T12:18:29.124Z,51.25
2022-12-25T12:23:56.528Z,38.63
2022-12-25T12:29:01.010Z,55.22
2022-12-25T12:34:03.517Z,48.95
2022-12-25T12:39:06.220Z,48.03
2022-12-25T12:44:12.000Z,54.33
2022-12-25T12:49:29.045Z,42.47
2022-12-25T12:54:31.577Z,52.58
2022-12-25T12:59:43.581Z,53.28
2022-12-25T13:05:06.232Z,48.90
2022-12-25T13:10:31.555Z,51.83
2022-12-25T13:15:35.611Z,76.50
2022-12-25T13:20:55.100Z,97.82
2022-12-25T13:26:00.892Z,59.75
2022-12-25T13:31:06.827Z,57.88
2022-12-25T13:36:13.592Z,92.13
2022-12-25T13:41:54.215Z,72.57
2022-12-25T13:46:56.820Z,62.33
2022-12-25T13:52:13.844Z,74.35
2022-12-25T13:57:18.245Z,58.30
2022-12-25T14:02:23.720Z,79.30
2022-12-25T14:07:26.371Z,91.17
2022-12-25T14:12:30.632Z,91.68
2022-12-25T14:17:35.572Z,117.03
2022-12-25T14:22:41.725Z,188.27
2022-12-25T14:27:49.670Z,78.38
2022-12-25T14:32:55.394Z,114.80
2022-12-25T14:38:11.289Z,112.97
2022-12-25T14:43:28.255Z,121.43
2022-12-25T14:48:33.381Z,82.85
2022-12-25T14:53:50.160Z,110.47
2022-12-25T14:59:00.774Z,83.53
2022-12-25T15:04:18.622Z,93.82
2022-12-25T15:09:21.275Z,83.07
2022-12-25T15:14:26.895Z,56.85
2022-12-25T15:19:37.665Z,83.43
2022-12-25T15:24:42.647Z,75.37
2022-12-25T15:35:18.224Z,96.28
2022-12-25T15:40:21.491Z,94.70
2022-12-25T15:45:26.868Z,84.13
2022-12-25T15:50:30.235Z,70.77
2022-12-25T15:55:33.232Z,93.63
2022-12-25T16:00:35.942Z,63.03
2022-12-25T16:05:38.411Z,146.43
2022-12-25T16:10:40.870Z,78.40
2022-12-25T16:15:45.749Z,101.47
2022-12-25T16:20:48.616Z,54.90
2022-12-25T16:25:56.189Z,93.57
2022-12-25T16:30:58.706Z,79.60
2022-12-25T16:36:11.383Z,72.40
2022-12-25T16:41:14.273Z,71.27
2022-12-25T16:46:19.146Z,93.78
2022-12-25T16:51:22.106Z,83.63
2022-12-25T16:56:28.625Z,60.60
2022-12-25T17:01:31.395Z,57.90
2022-12-25T17:06:33.951Z,80.87
2022-12-25T17:11:40.866Z,76.32
2022-12-25T17:16:43.654Z,101.88
2022-12-25T17:21:46.496Z,70.95
2022-12-25T17:26:49.076Z,66.07
2022-12-25T17:31:54.028Z,58.37
2022-12-25T17:36:59.250Z,101.97
2022-12-25T17:42:01.677Z,69.72
2022-12-25T17:47:04.285Z,75.07
2022-12-25T17:52:06.873Z,97.07
2022-12-25T17:57:09.379Z,48.87
2022-12-25T18:02:12.149Z,44.10
2022-12-25T18:07:15.410Z,55.22
2022-12-25T18:12:17.894Z,64.40
2022-12-25T18:17:20.325Z,61.33
2022-12-25T18:22:22.872Z,60.17
2022-12-25T18:27:28.255Z,51.47
2022-12-25T18:32:32.892Z,59.85
2022-12-25T18:37:39.949Z,52.67
2022-12-25T18:42:43.451Z,50.53
2022-12-25T18:47:45.956Z,43.73
2022-12-25T18:52:51.675Z,25.05
2022-12-25T18:57:55.008Z,41.33
2022-12-25T19:02:59.321Z,57.13
2022-12-25T19:08:01.984Z,38.30
2022-12-25T19:13:08.046Z,35.93
2022-12-25T19:18:11.708Z,44.92
2022-12-25T19:23:14.180Z,28.95
2022-12-25T19:28:17.908Z,27.95
2022-12-25T19:33:21.108Z,46.53
2022-12-25T19:38:23.586Z,37.13
2022-12-25T19:43:35.987Z,47.53
2022-12-25T19:48:38.471Z,45.08
2022-12-25T19:53:40.883Z,46.70
2022-12-25T19:58:43.946Z,15.63
2022-12-25T20:03:47.143Z,27.70
2022-12-25T20:08:53.525Z,19.90
2022-12-25T20:13:56.356Z,44.05
2022-12-25T20:18:59.247Z,28.67
2022-12-25T20:24:01.633Z,23.40
2022-12-25T20:29:04.376Z,28.53
2022-12-25T20:34:10.348Z,36.05
2022-12-25T20:39:13.921Z,23.10
2022-12-25T20:44:16.390Z,34.17
2022-12-25T20:49:27.896Z,22.48
2022-12-25T20:54:31.549Z,28.63
2022-12-25T20:59:37.754Z,43.92
2022-12-25T21:04:40.634Z,33.88
2022-12-25T21:09:43.186Z,20.90
2022-12-25T21:14:45.815Z,19.70
2022-12-25T21:19:48.223Z,11.70
2022-12-25T21:24:52.409Z,34.35
2022-12-25T21:29:54.853Z,36.30
2022-12-25T21:34:57.309Z,33.97
2022-12-25T21:40:00.369Z,26.20
2022-12-25T21:45:02.984Z,25.67
2022-12-25T21:50:24.262Z,10.05
2022-12-25T21:55:28.449Z,19.33
2022-12-25T22:00:30.976Z,21.23
2022-12-25T22:05:52.045Z,18.83
2022-12-25T22:10:54.478Z,27.93
2022-12-25T22:16:23.388Z,33.40
2022-12-25T22:21:25.867Z,15.60
2022-12-25T22:26:28.345Z,14.00
2022-12-25T22:31:30.782Z,15.55
2022-12-25T22:36:33.295Z,1.50
2022-12-25T22:41:35.843Z,8.27
2022-12-25T22:46:38.555Z,8.35
2022-12-25T22:51:40.993Z,1.77
2022-12-25T22:56:45.030Z,2.05
2022-12-25T23:01:47.688Z,0.80
2022-12-25T23:06:50.591Z,0.80
2022-12-25T23:11:53.696Z,1.00
2022-12-25T23:16:56.445Z,0.77
2022-12-25T23:22:18.140Z,0.70
2022-12-25T23:27:20.743Z,1.30
2022-12-25T23:32:25.448Z,13.50
2022-12-25T23:37:27.962Z,1.05
2022-12-25T23:42:33.474Z,0.70
2022-12-25T23:47:35.937Z,0.70
2022-12-25T23:52:38.464Z,1.00
2022-12-25T23:57:40.994Z,0.90
